sensor_id;sensor_type;location;lat;lon;timestamp;P1;durP1;ratioP1;P2;durP2;ratioP2
31284;SDS011;56605;51.516;6.742;2022-11-21T00:01:55;71.17;;;28.30;;
31284;SDS011;56605;51.516;6.742;2022-11-21T00:04:20;79.20;;;32.70;;
31284;SDS011;56605;51.516;6.742;2022-11-21T00:06:45;80.13;;;35.30;;
31284;SDS011;56605;51.516;6.742;2022-11-21T00:09:11;83.20;;;31.43;;
31284;SDS011;56605;51.516;6.742;2022-11-21T00:11:36;86.30;;;34.53;;
31284;SDS011;56605;51.516;6.742;2022-11-21T00:14:01;76.20;;;29.63;;
31284;SDS011;56605;51.516;6.742;2022-11-21T00:16:26;82.23;;;31.53;;
31284;SDS011;56605;51.516;6.742;2022-11-21T00:18:52;68.50;;;28.07;;
31284;SDS011;56605;51.516;6.742;2022-11-21T00:21:17;75.07;;;30.13;;
31284;SDS011;56605;51.516;6.742;2022-11-21T00:23:44;66.30;;;27.40;;
31284;SDS011;56605;51.516;6.742;2022-11-21T00:26:11;79.57;;;30.90;;
31284;SDS011;56605;51.516;6.742;2022-11-21T00:28:38;72.67;;;31.60;;
31284;SDS011;56605;51.516;6.742;2022-11-21T00:31:04;72.77;;;28.87;;
31284;SDS011;56605;51.516;6.742;2022-11-21T00:33:30;74.30;;;30.47;;
31284;SDS011;56605;51.516;6.742;2022-11-21T00:35:56;67.97;;;29.87;;
31284;SDS011;56605;51.516;6.742;2022-11-21T00:38:21;80.60;;;30.43;;
31284;SDS011;56605;51.516;6.742;2022-11-21T00:40:48;81.80;;;31.33;;
31284;SDS011;56605;51.516;6.742;2022-11-21T00:43:13;88.00;;;36.07;;
31284;SDS011;56605;51.516;6.742;2022-11-21T00:45:39;83.50;;;30.93;;
31284;SDS011;56605;51.516;6.742;2022-11-21T00:48:04;81.40;;;30.30;;
31284;SDS011;56605;51.516;6.742;2022-11-21T00:50:30;87.87;;;32.00;;
31284;SDS011;56605;51.516;6.742;2022-11-21T00:52:55;73.13;;;28.67;;
31284;SDS011;56605;51.516;6.742;2022-11-21T00:55:22;75.73;;;29.63;;
31284;SDS011;56605;51.516;6.742;2022-11-21T00:57:48;81.30;;;31.40;;
31284;SDS011;56605;51.516;6.742;2022-11-21T01:00:14;77.17;;;29.90;;
31284;SDS011;56605;51.516;6.742;2022-11-21T01:02:39;87.97;;;33.30;;
31284;SDS011;56605;51.516;6.742;2022-11-21T01:05:05;80.77;;;31.77;;
31284;SDS011;56605;51.516;6.742;2022-11-21T01:07:31;80.53;;;30.07;;
31284;SDS011;56605;51.516;6.742;2022-11-21T01:09:56;92.83;;;32.03;;
31284;SDS011;56605;51.516;6.742;2022-11-21T01:12:22;89.87;;;35.57;;
31284;SDS011;56605;51.516;6.742;2022-11-21T01:14:47;90.37;;;34.60;;
31284;SDS011;56605;51.516;6.742;2022-11-21T01:17:12;84.07;;;32.47;;
31284;SDS011;56605;51.516;6.742;2022-11-21T01:19:38;80.90;;;31.77;;
31284;SDS011;56605;51.516;6.742;2022-11-21T01:22:03;78.87;;;31.77;;
31284;SDS011;56605;51.516;6.742;2022-11-21T01:24:29;80.73;;;32.60;;
31284;SDS011;56605;51.516;6.742;2022-11-21T01:26:54;88.70;;;33.60;;
31284;SDS011;56605;51.516;6.742;2022-11-21T01:29:19;79.83;;;32.57;;
31284;SDS011;56605;51.516;6.742;2022-11-21T01:31:45;76.67;;;29.73;;
31284;SDS011;56605;51.516;6.742;2022-11-21T01:34:10;76.40;;;30.67;;
31284;SDS011;56605;51.516;6.742;2022-11-21T01:36:35;80.40;;;32.47;;
31284;SDS011;56605;51.516;6.742;2022-11-21T01:39:02;80.97;;;29.27;;
31284;SDS011;56605;51.516;6.742;2022-11-21T01:41:30;82.03;;;29.97;;
31284;SDS011;56605;51.516;6.742;2022-11-21T01:44:00;88.53;;;29.10;;
31284;SDS011;56605;51.516;6.742;2022-11-21T01:46:46;73.73;;;27.80;;
31284;SDS011;56605;51.516;6.742;2022-11-21T01:49:19;75.20;;;28.77;;
31284;SDS011;56605;51.516;6.742;2022-11-21T01:51:49;70.30;;;27.87;;
31284;SDS011;56605;51.516;6.742;2022-11-21T01:54:20;76.03;;;28.40;;
31284;SDS011;56605;51.516;6.742;2022-11-21T01:57:00;75.73;;;29.43;;
31284;SDS011;56605;51.516;6.742;2022-11-21T02:02:31;67.43;;;27.87;;
31284;SDS011;56605;51.516;6.742;2022-11-21T02:05:00;83.53;;;29.67;;
31284;SDS011;56605;51.516;6.742;2022-11-21T02:07:27;83.30;;;31.50;;
31284;SDS011;56605;51.516;6.742;2022-11-21T02:09:56;74.80;;;27.33;;
31284;SDS011;56605;51.516;6.742;2022-11-21T02:12:31;80.60;;;28.60;;
31284;SDS011;56605;51.516;6.742;2022-11-21T02:15:02;79.40;;;30.40;;
31284;SDS011;56605;51.516;6.742;2022-11-21T02:17:28;80.03;;;29.03;;
31284;SDS011;56605;51.516;6.742;2022-11-21T02:19:55;79.20;;;29.23;;
31284;SDS011;56605;51.516;6.742;2022-11-21T02:25:06;73.63;;;30.10;;
31284;SDS011;56605;51.516;6.742;2022-11-21T02:27:35;69.30;;;29.07;;
31284;SDS011;56605;51.516;6.742;2022-11-21T02:30:02;65.87;;;28.13;;
31284;SDS011;56605;51.516;6.742;2022-11-21T02:32:33;70.27;;;29.00;;
31284;SDS011;56605;51.516;6.742;2022-11-21T02:35:03;71.47;;;29.33;;
31284;SDS011;56605;51.516;6.742;2022-11-21T02:37:29;65.47;;;27.57;;
31284;SDS011;56605;51.516;6.742;2022-11-21T02:39:57;73.90;;;27.87;;
31284;SDS011;56605;51.516;6.742;2022-11-21T02:45:27;70.13;;;27.07;;
31284;SDS011;56605;51.516;6.742;2022-11-21T02:47:57;68.23;;;26.63;;
31284;SDS011;56605;51.516;6.742;2022-11-21T02:50:24;65.50;;;28.07;;
31284;SDS011;56605;51.516;6.742;2022-11-21T02:52:52;66.73;;;27.97;;
31284;SDS011;56605;51.516;6.742;2022-11-21T02:55:17;69.07;;;26.60;;
31284;SDS011;56605;51.516;6.742;2022-11-21T02:57:43;65.63;;;27.70;;
31284;SDS011;56605;51.516;6.742;2022-11-21T03:00:09;66.13;;;26.63;;
31284;SDS011;56605;51.516;6.742;2022-11-21T03:02:35;67.30;;;25.40;;
31284;SDS011;56605;51.516;6.742;2022-11-21T03:05:02;71.73;;;27.50;;
31284;SDS011;56605;51.516;6.742;2022-11-21T03:07:28;64.90;;;26.27;;
31284;SDS011;56605;51.516;6.742;2022-11-21T03:09:54;67.30;;;27.57;;
31284;SDS011;56605;51.516;6.742;2022-11-21T03:12:19;66.63;;;28.30;;
31284;SDS011;56605;51.516;6.742;2022-11-21T03:14:44;65.40;;;27.77;;
31284;SDS011;56605;51.516;6.742;2022-11-21T03:17:09;69.93;;;28.63;;
31284;SDS011;56605;51.516;6.742;2022-11-21T03:19:35;69.37;;;26.40;;
31284;SDS011;56605;51.516;6.742;2022-11-21T03:22:01;73.13;;;27.90;;
31284;SDS011;56605;51.516;6.742;2022-11-21T03:24:26;70.63;;;27.13;;
31284;SDS011;56605;51.516;6.742;2022-11-21T03:26:51;66.33;;;27.07;;
31284;SDS011;56605;51.516;6.742;2022-11-21T03:29:17;69.67;;;27.33;;
31284;SDS011;56605;51.516;6.742;2022-11-21T03:31:42;70.47;;;26.57;;
31284;SDS011;56605;51.516;6.742;2022-11-21T03:34:08;75.43;;;28.80;;
31284;SDS011;56605;51.516;6.742;2022-11-21T03:36:33;65.00;;;27.57;;
31284;SDS011;56605;51.516;6.742;2022-11-21T03:38:58;63.97;;;26.27;;
31284;SDS011;56605;51.516;6.742;2022-11-21T03:41:24;64.57;;;26.97;;
31284;SDS011;56605;51.516;6.742;2022-11-21T03:44:00;66.23;;;25.43;;
31284;SDS011;56605;51.516;6.742;2022-11-21T03:46:29;70.37;;;27.23;;
31284;SDS011;56605;51.516;6.742;2022-11-21T03:48:56;61.73;;;27.50;;
31284;SDS011;56605;51.516;6.742;2022-11-21T03:51:22;64.23;;;26.97;;
31284;SDS011;56605;51.516;6.742;2022-11-21T03:53:47;67.80;;;27.37;;
31284;SDS011;56605;51.516;6.742;2022-11-21T03:56:13;64.87;;;26.53;;
31284;SDS011;56605;51.516;6.742;2022-11-21T03:58:39;66.40;;;25.77;;
31284;SDS011;56605;51.516;6.742;2022-11-21T04:01:04;66.17;;;26.00;;
31284;SDS011;56605;51.516;6.742;2022-11-21T04:03:30;63.70;;;25.00;;
31284;SDS011;56605;51.516;6.742;2022-11-21T04:05:55;63.40;;;26.07;;
31284;SDS011;56605;51.516;6.742;2022-11-21T04:08:20;68.03;;;26.63;;
31284;SDS011;56605;51.516;6.742;2022-11-21T04:10:46;71.13;;;25.60;;
31284;SDS011;56605;51.516;6.742;2022-11-21T04:13:12;75.60;;;27.67;;
31284;SDS011;56605;51.516;6.742;2022-11-21T04:15:37;66.80;;;27.33;;
31284;SDS011;56605;51.516;6.742;2022-11-21T04:18:03;65.53;;;25.40;;
31284;SDS011;56605;51.516;6.742;2022-11-21T04:20:28;64.93;;;25.27;;
31284;SDS011;56605;51.516;6.742;2022-11-21T04:22:53;74.87;;;25.20;;
31284;SDS011;56605;51.516;6.742;2022-11-21T04:25:18;71.33;;;26.17;;
31284;SDS011;56605;51.516;6.742;2022-11-21T04:27:44;82.00;;;25.93;;
31284;SDS011;56605;51.516;6.742;2022-11-21T04:30:09;68.20;;;24.07;;
31284;SDS011;56605;51.516;6.742;2022-11-21T04:32:35;63.90;;;24.10;;
31284;SDS011;56605;51.516;6.742;2022-11-21T04:35:00;74.97;;;25.60;;
31284;SDS011;56605;51.516;6.742;2022-11-21T04:37:25;67.20;;;24.70;;
31284;SDS011;56605;51.516;6.742;2022-11-21T04:39:51;67.47;;;23.17;;
31284;SDS011;56605;51.516;6.742;2022-11-21T04:42:16;68.90;;;25.03;;
31284;SDS011;56605;51.516;6.742;2022-11-21T04:44:41;72.27;;;22.43;;
31284;SDS011;56605;51.516;6.742;2022-11-21T04:47:06;74.20;;;23.33;;
31284;SDS011;56605;51.516;6.742;2022-11-21T04:49:32;77.30;;;24.83;;
31284;SDS011;56605;51.516;6.742;2022-11-21T04:51:57;70.23;;;22.67;;
31284;SDS011;56605;51.516;6.742;2022-11-21T04:54:22;63.23;;;21.87;;
31284;SDS011;56605;51.516;6.742;2022-11-21T04:56:47;68.50;;;22.37;;
31284;SDS011;56605;51.516;6.742;2022-11-21T04:59:13;68.10;;;24.23;;
31284;SDS011;56605;51.516;6.742;2022-11-21T05:01:38;72.90;;;22.43;;
31284;SDS011;56605;51.516;6.742;2022-11-21T05:04:03;67.23;;;21.57;;
31284;SDS011;56605;51.516;6.742;2022-11-21T05:06:29;54.60;;;18.30;;
31284;SDS011;56605;51.516;6.742;2022-11-21T05:08:54;68.10;;;20.67;;
31284;SDS011;56605;51.516;6.742;2022-11-21T05:11:19;64.87;;;20.60;;
31284;SDS011;56605;51.516;6.742;2022-11-21T05:14:03;61.83;;;19.33;;
31284;SDS011;56605;51.516;6.742;2022-11-21T05:16:28;53.20;;;18.50;;
31284;SDS011;56605;51.516;6.742;2022-11-21T05:18:56;52.53;;;17.57;;
31284;SDS011;56605;51.516;6.742;2022-11-21T05:21:21;55.00;;;17.97;;
31284;SDS011;56605;51.516;6.742;2022-11-21T05:23:46;51.13;;;17.90;;
31284;SDS011;56605;51.516;6.742;2022-11-21T05:26:11;59.03;;;18.50;;
31284;SDS011;56605;51.516;6.742;2022-11-21T05:28:37;61.93;;;19.10;;
31284;SDS011;56605;51.516;6.742;2022-11-21T05:31:02;66.40;;;20.00;;
31284;SDS011;56605;51.516;6.742;2022-11-21T05:33:27;53.23;;;19.87;;
31284;SDS011;56605;51.516;6.742;2022-11-21T05:35:52;66.33;;;20.77;;
31284;SDS011;56605;51.516;6.742;2022-11-21T05:38:18;62.70;;;20.17;;
31284;SDS011;56605;51.516;6.742;2022-11-21T05:40:43;56.17;;;19.60;;
31284;SDS011;56605;51.516;6.742;2022-11-21T05:43:09;56.90;;;17.80;;
31284;SDS011;56605;51.516;6.742;2022-11-21T05:46:08;65.53;;;19.13;;
31284;SDS011;56605;51.516;6.742;2022-11-21T05:48:33;62.27;;;20.10;;
31284;SDS011;56605;51.516;6.742;2022-11-21T05:51:00;64.13;;;21.10;;
31284;SDS011;56605;51.516;6.742;2022-11-21T05:53:26;59.23;;;19.53;;
31284;SDS011;56605;51.516;6.742;2022-11-21T05:55:51;61.23;;;19.57;;
31284;SDS011;56605;51.516;6.742;2022-11-21T05:58:16;54.30;;;18.13;;
31284;SDS011;56605;51.516;6.742;2022-11-21T06:00:42;65.30;;;20.30;;
31284;SDS011;56605;51.516;6.742;2022-11-21T06:03:10;55.50;;;18.97;;
31284;SDS011;56605;51.516;6.742;2022-11-21T06:05:51;56.73;;;18.80;;
31284;SDS011;56605;51.516;6.742;2022-11-21T06:08:26;61.23;;;20.73;;
31284;SDS011;56605;51.516;6.742;2022-11-21T06:10:52;72.13;;;20.17;;
31284;SDS011;56605;51.516;6.742;2022-11-21T06:13:17;54.53;;;19.27;;
31284;SDS011;56605;51.516;6.742;2022-11-21T06:16:01;64.93;;;18.37;;
31284;SDS011;56605;51.516;6.742;2022-11-21T06:18:28;66.87;;;19.17;;
31284;SDS011;56605;51.516;6.742;2022-11-21T06:21:05;59.07;;;21.00;;
31284;SDS011;56605;51.516;6.742;2022-11-21T06:23:37;68.63;;;20.97;;
31284;SDS011;56605;51.516;6.742;2022-11-21T06:26:03;58.97;;;19.83;;
31284;SDS011;56605;51.516;6.742;2022-11-21T06:28:31;61.53;;;21.27;;
31284;SDS011;56605;51.516;6.742;2022-11-21T06:31:01;73.03;;;21.33;;
31284;SDS011;56605;51.516;6.742;2022-11-21T06:33:30;75.90;;;22.53;;
31284;SDS011;56605;51.516;6.742;2022-11-21T06:35:56;79.40;;;23.57;;
31284;SDS011;56605;51.516;6.742;2022-11-21T06:38:21;73.87;;;22.43;;
31284;SDS011;56605;51.516;6.742;2022-11-21T06:40:46;97.73;;;26.00;;
31284;SDS011;56605;51.516;6.742;2022-11-21T06:43:12;87.00;;;25.90;;
31284;SDS011;56605;51.516;6.742;2022-11-21T06:45:37;95.60;;;27.47;;
31284;SDS011;56605;51.516;6.742;2022-11-21T06:48:03;94.77;;;24.07;;
31284;SDS011;56605;51.516;6.742;2022-11-21T06:50:29;75.87;;;22.30;;
31284;SDS011;56605;51.516;6.742;2022-11-21T06:52:58;93.27;;;24.70;;
31284;SDS011;56605;51.516;6.742;2022-11-21T06:55:25;106.53;;;27.77;;
31284;SDS011;56605;51.516;6.742;2022-11-21T06:57:52;93.85;;;28.17;;
31284;SDS011;56605;51.516;6.742;2022-11-21T07:00:17;98.47;;;30.40;;
31284;SDS011;56605;51.516;6.742;2022-11-21T07:02:44;110.43;;;29.55;;
31284;SDS011;56605;51.516;6.742;2022-11-21T07:05:10;85.93;;;26.50;;
31284;SDS011;56605;51.516;6.742;2022-11-21T07:07:35;98.53;;;28.33;;
31284;SDS011;56605;51.516;6.742;2022-11-21T07:10:01;97.93;;;28.97;;
31284;SDS011;56605;51.516;6.742;2022-11-21T07:12:26;96.33;;;28.40;;
31284;SDS011;56605;51.516;6.742;2022-11-21T07:15:10;71.13;;;24.37;;
31284;SDS011;56605;51.516;6.742;2022-11-21T07:17:36;60.63;;;16.47;;
31284;SDS011;56605;51.516;6.742;2022-11-21T07:20:01;63.60;;;22.88;;
31284;SDS011;56605;51.516;6.742;2022-11-21T07:22:26;72.33;;;23.60;;
31284;SDS011;56605;51.516;6.742;2022-11-21T07:24:52;82.43;;;25.93;;
31284;SDS011;56605;51.516;6.742;2022-11-21T07:27:17;75.63;;;25.17;;
31284;SDS011;56605;51.516;6.742;2022-11-21T07:29:42;76.03;;;25.52;;
31284;SDS011;56605;51.516;6.742;2022-11-21T07:32:08;83.95;;;25.23;;
31284;SDS011;56605;51.516;6.742;2022-11-21T07:34:33;73.63;;;24.15;;
31284;SDS011;56605;51.516;6.742;2022-11-21T07:36:59;67.95;;;23.02;;
31284;SDS011;56605;51.516;6.742;2022-11-21T07:39:25;64.93;;;23.70;;
31284;SDS011;56605;51.516;6.742;2022-11-21T07:41:50;71.22;;;25.88;;
31284;SDS011;56605;51.516;6.742;2022-11-21T07:44:15;67.45;;;23.98;;
31284;SDS011;56605;51.516;6.742;2022-11-21T07:46:41;79.65;;;24.35;;
31284;SDS011;56605;51.516;6.742;2022-11-21T07:49:06;84.80;;;26.38;;
31284;SDS011;56605;51.516;6.742;2022-11-21T07:51:31;83.32;;;28.67;;
31284;SDS011;56605;51.516;6.742;2022-11-21T07:53:57;77.10;;;26.97;;
31284;SDS011;56605;51.516;6.742;2022-11-21T07:56:22;78.57;;;28.20;;
31284;SDS011;56605;51.516;6.742;2022-11-21T07:58:50;72.60;;;26.77;;
31284;SDS011;56605;51.516;6.742;2022-11-21T08:01:16;73.00;;;24.77;;
31284;SDS011;56605;51.516;6.742;2022-11-21T08:03:42;81.55;;;27.35;;
31284;SDS011;56605;51.516;6.742;2022-11-21T08:06:08;80.85;;;27.80;;
31284;SDS011;56605;51.516;6.742;2022-11-21T08:08:36;78.90;;;26.08;;
31284;SDS011;56605;51.516;6.742;2022-11-21T08:11:05;67.60;;;25.08;;
31284;SDS011;56605;51.516;6.742;2022-11-21T08:13:31;75.68;;;25.75;;
31284;SDS011;56605;51.516;6.742;2022-11-21T08:15:57;81.20;;;25.00;;
31284;SDS011;56605;51.516;6.742;2022-11-21T08:18:22;85.03;;;25.37;;
31284;SDS011;56605;51.516;6.742;2022-11-21T08:20:48;80.32;;;26.73;;
31284;SDS011;56605;51.516;6.742;2022-11-21T08:23:13;79.53;;;26.67;;
31284;SDS011;56605;51.516;6.742;2022-11-21T08:25:39;75.97;;;27.27;;
31284;SDS011;56605;51.516;6.742;2022-11-21T08:28:05;75.50;;;24.35;;
31284;SDS011;56605;51.516;6.742;2022-11-21T08:30:32;78.25;;;24.73;;
31284;SDS011;56605;51.516;6.742;2022-11-21T08:32:58;86.85;;;26.67;;
31284;SDS011;56605;51.516;6.742;2022-11-21T08:35:24;86.20;;;28.17;;
31284;SDS011;56605;51.516;6.742;2022-11-21T08:37:57;83.15;;;27.38;;
31284;SDS011;56605;51.516;6.742;2022-11-21T08:40:26;91.32;;;26.80;;
31284;SDS011;56605;51.516;6.742;2022-11-21T08:42:59;94.30;;;29.30;;
31284;SDS011;56605;51.516;6.742;2022-11-21T08:45:32;91.07;;;28.40;;
31284;SDS011;56605;51.516;6.742;2022-11-21T08:47:58;95.28;;;28.48;;
31284;SDS011;56605;51.516;6.742;2022-11-21T08:50:24;95.95;;;28.55;;
31284;SDS011;56605;51.516;6.742;2022-11-21T08:52:50;92.45;;;28.67;;
31284;SDS011;56605;51.516;6.742;2022-11-21T08:55:16;89.13;;;28.55;;
31284;SDS011;56605;51.516;6.742;2022-11-21T08:57:41;88.35;;;31.08;;
31284;SDS011;56605;51.516;6.742;2022-11-21T09:00:07;85.75;;;27.13;;
31284;SDS011;56605;51.516;6.742;2022-11-21T09:02:36;87.72;;;29.90;;
31284;SDS011;56605;51.516;6.742;2022-11-21T09:05:02;102.78;;;30.55;;
31284;SDS011;56605;51.516;6.742;2022-11-21T09:07:27;111.82;;;30.27;;
31284;SDS011;56605;51.516;6.742;2022-11-21T09:09:52;104.25;;;30.63;;
31284;SDS011;56605;51.516;6.742;2022-11-21T09:12:18;106.50;;;28.13;;
31284;SDS011;56605;51.516;6.742;2022-11-21T09:14:43;100.70;;;31.15;;
31284;SDS011;56605;51.516;6.742;2022-11-21T09:17:27;102.68;;;31.60;;
31284;SDS011;56605;51.516;6.742;2022-11-21T09:20:31;106.60;;;31.67;;
31284;SDS011;56605;51.516;6.742;2022-11-21T09:23:02;105.65;;;30.92;;
31284;SDS011;56605;51.516;6.742;2022-11-21T09:25:30;81.88;;;27.45;;
31284;SDS011;56605;51.516;6.742;2022-11-21T09:28:00;97.28;;;30.23;;
31284;SDS011;56605;51.516;6.742;2022-11-21T09:30:26;112.43;;;34.63;;
31284;SDS011;56605;51.516;6.742;2022-11-21T09:32:52;113.13;;;33.10;;
31284;SDS011;56605;51.516;6.742;2022-11-21T09:35:18;119.68;;;34.60;;
31284;SDS011;56605;51.516;6.742;2022-11-21T09:37:44;116.97;;;36.05;;
31284;SDS011;56605;51.516;6.742;2022-11-21T09:40:14;111.10;;;33.97;;
31284;SDS011;56605;51.516;6.742;2022-11-21T09:42:46;117.35;;;35.65;;
31284;SDS011;56605;51.516;6.742;2022-11-21T09:47:59;107.28;;;33.10;;
31284;SDS011;56605;51.516;6.742;2022-11-21T09:50:36;112.88;;;35.13;;
31284;SDS011;56605;51.516;6.742;2022-11-21T09:53:05;96.22;;;32.95;;
31284;SDS011;56605;51.516;6.742;2022-11-21T09:58:05;107.47;;;35.03;;
31284;SDS011;56605;51.516;6.742;2022-11-21T10:00:52;89.53;;;32.35;;
31284;SDS011;56605;51.516;6.742;2022-11-21T10:03:19;110.55;;;35.22;;
31284;SDS011;56605;51.516;6.742;2022-11-21T10:05:47;95.05;;;33.13;;
31284;SDS011;56605;51.516;6.742;2022-11-21T10:14:02;94.82;;;31.63;;
31284;SDS011;56605;51.516;6.742;2022-11-21T10:16:46;75.85;;;26.90;;
31284;SDS011;56605;51.516;6.742;2022-11-21T10:19:41;87.70;;;28.73;;
31284;SDS011;56605;51.516;6.742;2022-11-21T10:24:55;94.25;;;30.92;;
31284;SDS011;56605;51.516;6.742;2022-11-21T10:27:36;91.25;;;29.08;;
31284;SDS011;56605;51.516;6.742;2022-11-21T10:30:17;98.35;;;29.95;;
31284;SDS011;56605;51.516;6.742;2022-11-21T10:32:52;85.53;;;30.42;;
31284;SDS011;56605;51.516;6.742;2022-11-21T10:35:22;90.93;;;28.85;;
31284;SDS011;56605;51.516;6.742;2022-11-21T10:37:55;85.53;;;29.45;;
31284;SDS011;56605;51.516;6.742;2022-11-21T10:40:31;81.68;;;29.35;;
31284;SDS011;56605;51.516;6.742;2022-11-21T10:45:53;82.75;;;29.67;;
31284;SDS011;56605;51.516;6.742;2022-11-21T10:48:18;83.07;;;29.92;;
31284;SDS011;56605;51.516;6.742;2022-11-21T10:50:47;80.72;;;29.17;;
31284;SDS011;56605;51.516;6.742;2022-11-21T10:53:30;85.60;;;30.67;;
31284;SDS011;56605;51.516;6.742;2022-11-21T10:56:15;82.30;;;29.60;;
31284;SDS011;56605;51.516;6.742;2022-11-21T10:58:56;74.40;;;26.63;;
31284;SDS011;56605;51.516;6.742;2022-11-21T11:01:30;61.65;;;24.35;;
31284;SDS011;56605;51.516;6.742;2022-11-21T11:06:29;74.85;;;27.70;;
31284;SDS011;56605;51.516;6.742;2022-11-21T11:08:54;76.60;;;27.90;;
31284;SDS011;56605;51.516;6.742;2022-11-21T11:11:20;65.30;;;26.73;;
31284;SDS011;56605;51.516;6.742;2022-11-21T11:13:55;62.67;;;27.23;;
31284;SDS011;56605;51.516;6.742;2022-11-21T11:16:22;56.53;;;23.48;;
31284;SDS011;56605;51.516;6.742;2022-11-21T11:21:47;36.30;;;17.35;;
31284;SDS011;56605;51.516;6.742;2022-11-21T11:29:16;39.88;;;18.60;;
31284;SDS011;56605;51.516;6.742;2022-11-21T11:34:27;34.25;;;16.25;;
31284;SDS011;56605;51.516;6.742;2022-11-21T11:37:10;27.42;;;14.90;;
31284;SDS011;56605;51.516;6.742;2022-11-21T11:45:14;22.92;;;12.45;;
31284;SDS011;56605;51.516;6.742;2022-11-21T11:48:13;27.13;;;13.10;;
31284;SDS011;56605;51.516;6.742;2022-11-21T11:50:50;24.17;;;12.27;;
31284;SDS011;56605;51.516;6.742;2022-11-21T11:53:21;25.55;;;12.95;;
31284;SDS011;56605;51.516;6.742;2022-11-21T11:56:15;23.20;;;14.13;;
31284;SDS011;56605;51.516;6.742;2022-11-21T11:58:48;20.63;;;9.63;;
31284;SDS011;56605;51.516;6.742;2022-11-21T12:01:41;22.77;;;12.75;;
31284;SDS011;56605;51.516;6.742;2022-11-21T12:04:12;26.40;;;12.02;;
31284;SDS011;56605;51.516;6.742;2022-11-21T12:06:55;30.05;;;14.10;;
31284;SDS011;56605;51.516;6.742;2022-11-21T12:12:15;23.90;;;12.18;;
31284;SDS011;56605;51.516;6.742;2022-11-21T12:23:22;17.35;;;6.28;;
31284;SDS011;56605;51.516;6.742;2022-11-21T12:28:42;20.67;;;9.18;;
31284;SDS011;56605;51.516;6.742;2022-11-21T12:31:45;15.75;;;8.73;;
31284;SDS011;56605;51.516;6.742;2022-11-21T12:39:57;15.77;;;8.40;;
31284;SDS011;56605;51.516;6.742;2022-11-21T12:48:11;22.13;;;10.48;;
31284;SDS011;56605;51.516;6.742;2022-11-21T12:54:05;18.20;;;8.52;;
31284;SDS011;56605;51.516;6.742;2022-11-21T12:56:56;16.67;;;6.07;;
31284;SDS011;56605;51.516;6.742;2022-11-21T12:59:30;17.83;;;7.25;;
31284;SDS011;56605;51.516;6.742;2022-11-21T13:04:59;13.35;;;7.20;;
31284;SDS011;56605;51.516;6.742;2022-11-21T13:07:28;10.75;;;5.80;;
31284;SDS011;56605;51.516;6.742;2022-11-21T13:09:56;12.85;;;6.47;;
31284;SDS011;56605;51.516;6.742;2022-11-21T13:12:26;12.35;;;5.05;;
31284;SDS011;56605;51.516;6.742;2022-11-21T13:15:17;13.32;;;7.65;;
31284;SDS011;56605;51.516;6.742;2022-11-21T13:17:52;14.05;;;7.47;;
31284;SDS011;56605;51.516;6.742;2022-11-21T13:20:44;12.38;;;4.95;;
31284;SDS011;56605;51.516;6.742;2022-11-21T13:28:49;9.10;;;5.32;;
31284;SDS011;56605;51.516;6.742;2022-11-21T13:31:32;12.48;;;4.95;;
31284;SDS011;56605;51.516;6.742;2022-11-21T13:33:59;9.95;;;5.15;;
31284;SDS011;56605;51.516;6.742;2022-11-21T13:49:58;11.18;;;4.57;;
31284;SDS011;56605;51.516;6.742;2022-11-21T13:52:36;12.77;;;4.57;;
31284;SDS011;56605;51.516;6.742;2022-11-21T13:58:05;14.52;;;5.05;;
31284;SDS011;56605;51.516;6.742;2022-11-21T14:06:36;11.35;;;6.00;;
31284;SDS011;56605;51.516;6.742;2022-11-21T14:11:46;10.63;;;5.63;;
31284;SDS011;56605;51.516;6.742;2022-11-21T14:14:27;7.72;;;5.22;;
31284;SDS011;56605;51.516;6.742;2022-11-21T14:19:26;9.90;;;5.75;;
31284;SDS011;56605;51.516;6.742;2022-11-21T14:21:52;11.05;;;6.53;;
31284;SDS011;56605;51.516;6.742;2022-11-21T14:24:19;15.90;;;6.70;;
31284;SDS011;56605;51.516;6.742;2022-11-21T14:26:45;11.77;;;6.60;;
31284;SDS011;56605;51.516;6.742;2022-11-21T14:31:47;13.75;;;6.22;;
31284;SDS011;56605;51.516;6.742;2022-11-21T14:34:26;12.20;;;6.05;;
31284;SDS011;56605;51.516;6.742;2022-11-21T14:36:57;11.88;;;6.78;;
31284;SDS011;56605;51.516;6.742;2022-11-21T14:39:27;12.93;;;7.65;;
31284;SDS011;56605;51.516;6.742;2022-11-21T14:41:56;14.38;;;7.22;;
31284;SDS011;56605;51.516;6.742;2022-11-21T14:44:25;13.07;;;6.50;;
31284;SDS011;56605;51.516;6.742;2022-11-21T14:46:51;16.10;;;7.45;;
31284;SDS011;56605;51.516;6.742;2022-11-21T14:49:29;13.40;;;7.15;;
31284;SDS011;56605;51.516;6.742;2022-11-21T14:52:00;13.35;;;7.20;;
31284;SDS011;56605;51.516;6.742;2022-11-21T14:54:45;14.52;;;7.60;;
31284;SDS011;56605;51.516;6.742;2022-11-21T14:57:37;15.05;;;6.75;;
31284;SDS011;56605;51.516;6.742;2022-11-21T15:00:06;12.70;;;7.18;;
31284;SDS011;56605;51.516;6.742;2022-11-21T15:02:32;12.38;;;6.88;;
31284;SDS011;56605;51.516;6.742;2022-11-21T15:05:05;11.85;;;6.20;;
31284;SDS011;56605;51.516;6.742;2022-11-21T15:07:39;15.18;;;8.07;;
31284;SDS011;56605;51.516;6.742;2022-11-21T15:10:10;16.08;;;6.88;;
31284;SDS011;56605;51.516;6.742;2022-11-21T15:12:40;16.92;;;8.27;;
31284;SDS011;56605;51.516;6.742;2022-11-21T15:15:32;18.88;;;9.38;;
31284;SDS011;56605;51.516;6.742;2022-11-21T15:18:03;19.88;;;10.10;;
31284;SDS011;56605;51.516;6.742;2022-11-21T15:20:31;20.30;;;9.00;;
31284;SDS011;56605;51.516;6.742;2022-11-21T15:22:58;19.05;;;9.23;;
31284;SDS011;56605;51.516;6.742;2022-11-21T15:25:26;24.23;;;10.73;;
31284;SDS011;56605;51.516;6.742;2022-11-21T15:30:30;16.45;;;9.95;;
31284;SDS011;56605;51.516;6.742;2022-11-21T15:35:46;17.35;;;8.75;;
31284;SDS011;56605;51.516;6.742;2022-11-21T15:41:02;14.90;;;9.43;;
31284;SDS011;56605;51.516;6.742;2022-11-21T15:46:13;18.08;;;8.77;;
31284;SDS011;56605;51.516;6.742;2022-11-21T15:48:43;13.52;;;7.65;;
31284;SDS011;56605;51.516;6.742;2022-11-21T15:51:13;15.98;;;8.63;;
31284;SDS011;56605;51.516;6.742;2022-11-21T15:53:39;14.63;;;8.13;;
31284;SDS011;56605;51.516;6.742;2022-11-21T15:56:05;14.93;;;8.48;;
31284;SDS011;56605;51.516;6.742;2022-11-21T15:58:30;20.55;;;9.23;;
31284;SDS011;56605;51.516;6.742;2022-11-21T16:00:56;14.75;;;8.75;;
31284;SDS011;56605;51.516;6.742;2022-11-21T16:03:21;19.02;;;9.35;;
31284;SDS011;56605;51.516;6.742;2022-11-21T16:05:47;12.55;;;7.70;;
31284;SDS011;56605;51.516;6.742;2022-11-21T16:08:13;16.73;;;9.13;;
31284;SDS011;56605;51.516;6.742;2022-11-21T16:10:38;17.02;;;7.93;;
31284;SDS011;56605;51.516;6.742;2022-11-21T16:13:04;13.30;;;7.13;;
31284;SDS011;56605;51.516;6.742;2022-11-21T16:15:29;25.48;;;8.85;;
31284;SDS011;56605;51.516;6.742;2022-11-21T16:17:54;17.17;;;7.55;;
31284;SDS011;56605;51.516;6.742;2022-11-21T16:20:20;18.73;;;6.95;;
31284;SDS011;56605;51.516;6.742;2022-11-21T16:22:45;14.45;;;5.85;;
31284;SDS011;56605;51.516;6.742;2022-11-21T16:25:10;8.23;;;4.68;;
31284;SDS011;56605;51.516;6.742;2022-11-21T16:27:36;11.93;;;5.50;;
31284;SDS011;56605;51.516;6.742;2022-11-21T16:30:01;13.52;;;5.10;;
31284;SDS011;56605;51.516;6.742;2022-11-21T16:32:27;10.98;;;5.38;;
31284;SDS011;56605;51.516;6.742;2022-11-21T16:34:52;10.43;;;4.38;;
31284;SDS011;56605;51.516;6.742;2022-11-21T16:37:18;7.88;;;2.88;;